Time;durP1;ratioP1;P1;durP2;ratioP2;P2;SDS_P1;SDS_P2;PMS_P1;PMS_P2;Temp;Humidity;BMP_temperature;BMP_pressure;BME280_temperature;BME280_humidity;BME280_pressure;Samples;Min_cycle;Max_cycle;Signal;HPM_P1;HPM_P2
2022/03/13 00:02:16;;;;;;;37.78;19.92;;;64.90;2201.60;;;;;;4978612;28;20026;-77
2022/03/13 00:04:49;;;;;;;48.35;23.80;;;89.60;2201.60;;;;;;4996011;28;20046;-76
2022/03/13 00:07:18;;;;;;;44.38;23.17;;;89.60;2201.60;;;;;;4995808;28;20109;-78
2022/03/13 00:09:45;;;;;;;68.35;26.48;;;89.60;2201.60;;;;;;4996120;28;20031;-77
2022/03/13 00:12:15;;;;;;;40.15;22.25;;;64.80;2201.60;;;;;;4995759;28;20520;-77
2022/03/13 00:14:43;;;;;;;44.67;25.83;;;89.60;2201.60;;;;;;4995750;28;20086;-76
2022/03/13 00:17:11;;;;;;;45.15;22.80;;;89.60;2201.60;;;;;;4978398;28;20034;-76
2022/03/13 00:19:38;;;;;;;43.65;23.35;;;89.60;2201.60;;;;;;4996017;28;20433;-76
2022/03/13 00:22:05;;;;;;;46.67;26.20;;;64.90;2201.60;;;;;;4995608;28;20073;-77
2022/03/13 00:24:32;;;;;;;47.53;25.77;;;89.60;2201.60;;;;;;4995615;28;20486;-77
2022/03/13 00:27:00;;;;;;;47.38;28.45;;;89.60;2201.60;;;;;;4995442;28;20033;-77
2022/03/13 00:29:26;;;;;;;70.72;41.80;;;89.60;2201.60;;;;;;4995446;28;20100;-76
2022/03/13 00:31:52;;;;;;;49.85;24.02;;;89.60;2201.60;;;;;;4978033;28;20030;-77
2022/03/13 00:34:18;;;;;;;35.70;18.80;;;89.70;2176.00;;;;;;4995176;28;20026;-77
2022/03/13 00:36:44;;;;;;;29.98;15.60;;;89.70;2176.00;;;;;;4993195;28;20026;-76
2022/03/13 00:39:11;;;;;;;28.38;15.65;;;89.90;2176.00;;;;;;4995192;28;20054;-76
2022/03/13 00:41:37;;;;;;;22.85;15.40;;;89.90;2176.00;;;;;;4995308;28;20034;-76
2022/03/13 00:44:04;;;;;;;36.22;19.42;;;89.90;2176.00;;;;;;4995237;28;20038;-76
2022/03/13 00:46:30;;;;;;;41.28;22.50;;;89.90;2176.00;;;;;;4993873;28;20030;-76
2022/03/13 00:48:56;;;;;;;47.88;27.70;;;89.90;2176.00;;;;;;4993760;28;20522;-77
2022/03/13 00:51:22;;;;;;;35.40;22.13;;;89.80;2176.00;;;;;;4977565;28;20026;-76
2022/03/13 00:53:48;;;;;;;32.42;19.35;;;89.80;2176.00;;;;;;4995136;28;20026;-77
2022/03/13 00:56:14;;;;;;;34.00;18.60;;;89.90;2176.00;;;;;;4993643;28;20125;-76
2022/03/13 00:58:40;;;;;;;35.03;18.80;;;89.90;2176.00;;;;;;4994950;28;20146;-76
2022/03/13 01:01:07;;;;;;;32.58;16.90;;;90.00;2176.00;;;;;;4995337;28;20026;-77
2022/03/13 01:03:36;;;;;;;42.35;21.20;;;90.00;2176.00;;;;;;4977373;28;20104;-77
2022/03/13 01:06:06;;;;;;;42.08;22.00;;;89.90;2176.00;;;;;;4977405;28;20027;-76
2022/03/13 01:08:32;;;;;;;28.15;17.33;;;89.90;2176.00;;;;;;4977311;28;20042;-76
2022/03/13 01:11:00;;;;;;;26.92;15.80;;;90.00;2176.00;;;;;;4977193;28;20033;-76
2022/03/13 01:13:26;;;;;;;25.95;16.33;;;90.00;2176.00;;;;;;4993364;28;20542;-77
2022/03/13 01:16:00;;;;;;;36.92;19.30;;;90.00;2176.00;;;;;;4993261;28;20050;-76
2022/03/13 01:18:25;;;;;;;;;;;90.00;2176.00;;;;;;4993832;28;20054;-77
2022/03/13 01:20:51;;;;;;;39.22;23.95;;;90.10;2176.00;;;;;;4977132;28;20003;-76
2022/03/13 01:23:17;;;;;;;50.53;23.13;;;90.10;2176.00;;;;;;4993254;28;20466;-76
2022/03/13 01:25:43;;;;;;;39.25;19.05;;;90.20;2176.00;;;;;;4994443;28;20029;-76
2022/03/13 01:28:09;;;;;;;42.47;22.65;;;90.30;2176.00;;;;;;4994457;28;20486;-76
2022/03/13 01:30:35;;;;;;;35.22;22.40;;;90.30;2176.00;;;;;;4994817;28;20065;-77
2022/03/13 01:33:00;;;;;;;35.40;18.83;;;90.30;2176.00;;;;;;4993031;28;20032;-76
2022/03/13 01:35:26;;;;;;;42.05;20.58;;;90.30;2176.00;;;;;;4994020;28;20030;-76
2022/03/13 01:37:53;;;;;;;38.42;20.45;;;90.40;2176.00;;;;;;4994056;28;20097;-77
2022/03/13 01:40:23;;;;;;;27.70;17.65;;;90.50;2176.00;;;;;;4994207;28;20031;-77
2022/03/13 01:42:50;;;;;;;44.53;22.65;;;90.40;2176.00;;;;;;4994148;28;20437;-77
2022/03/13 01:45:18;;;;;;;35.28;19.77;;;90.40;2176.00;;;;;;4994097;28;20022;-76
2022/03/13 01:47:45;;;;;;;39.47;22.25;;;90.50;2176.00;;;;;;4993949;28;20031;-77
2022/03/13 01:50:12;;;;;;;35.92;19.50;;;90.40;2176.00;;;;;;4994195;28;20117;-76
2022/03/13 01:52:40;;;;;;;43.72;23.02;;;90.40;2176.00;;;;;;4993739;28;20032;-78
2022/03/13 01:55:07;;;;;;;34.75;17.20;;;90.50;2176.00;;;;;;4993920;28;20561;-76
2022/03/13 01:57:37;;;;;;;43.35;23.17;;;115.20;2176.00;;;;;;4993815;28;20046;-76
2022/03/13 02:00:07;;;;;;;31.38;16.20;;;115.20;2176.00;;;;;;4993604;28;20018;-76
2022/03/13 02:02:34;;;;;;;30.50;17.75;;;115.20;2176.00;;;;;;4993580;28;20026;-76
2022/03/13 02:05:00;;;;;;;30.05;19.25;;;115.30;2176.00;;;;;;4993417;28;20027;-76
2022/03/13 02:07:28;;;;;;;35.42;19.38;;;115.30;2176.00;;;;;;4993633;28;20042;-78
2022/03/13 02:09:55;;;;;;;40.65;23.02;;;115.30;2176.00;;;;;;4976261;28;20394;-76
2022/03/13 02:12:24;;;;;;;71.32;39.30;;;115.20;2176.00;;;;;;4993615;28;20022;-77
2022/03/13 02:14:50;;;;;;;78.65;42.30;;;115.20;2176.00;;;;;;4993551;28;20054;-76
2022/03/13 02:17:34;;;;;;;89.57;50.30;;;115.30;2176.00;;;;;;4993552;28;20026;-76
2022/03/13 02:20:00;;;;;;;102.75;56.20;;;115.20;2176.00;;;;;;4992365;28;20084;-77
2022/03/13 02:22:26;;;;;;;102.95;55.72;;;115.30;2176.00;;;;;;4993175;28;20109;-78
2022/03/13 02:24:53;;;;;;;112.22;67.43;;;115.30;2176.00;;;;;;4993107;28;20113;-76
2022/03/13 02:27:25;;;;;;;100.82;55.33;;;115.30;2176.00;;;;;;4993303;28;20069;-77
2022/03/13 02:29:51;;;;;;;70.53;39.58;;;115.30;2176.00;;;;;;4993344;28;20034;-76
2022/03/13 02:32:18;;;;;;;45.83;25.92;;;115.50;2176.00;;;;;;4992926;28;20474;-77
2022/03/13 02:34:46;;;;;;;44.90;19.15;;;115.50;2176.00;;;;;;4993205;28;20041;-77
2022/03/13 02:37:39;;;;;;;32.05;17.50;;;115.70;2176.00;;;;;;4993208;28;20034;-78
2022/03/13 02:40:06;;;;;;;36.10;19.33;;;115.80;2176.00;;;;;;4992997;28;20164;-77
2022/03/13 02:42:32;;;;;;;36.08;20.90;;;115.70;2176.00;;;;;;4975767;28;20026;-78
2022/03/13 02:44:58;;;;;;;39.03;20.52;;;115.80;2176.00;;;;;;4975668;28;20045;-76
2022/03/13 02:47:24;;;;;;;41.97;21.60;;;115.80;2176.00;;;;;;4992961;28;20059;-76
2022/03/13 02:49:49;;;;;;;39.55;21.23;;;115.80;2176.00;;;;;;4992611;28;20026;-76
2022/03/13 02:52:15;;;;;;;40.92;21.40;;;115.90;2176.00;;;;;;4975252;28;20033;-77
2022/03/13 02:54:41;;;;;;;37.95;19.90;;;115.80;2176.00;;;;;;4992621;28;20038;-76
2022/03/13 02:57:07;;;;;;;42.75;22.83;;;115.70;2176.00;;;;;;4992585;28;20026;-76
2022/03/13 02:59:33;;;;;;;50.85;25.30;;;115.70;2176.00;;;;;;4975129;28;20026;-76
2022/03/13 03:02:02;;;;;;;39.63;25.58;;;115.70;2176.00;;;;;;4992859;28;20030;-77
2022/03/13 03:04:27;;;;;;;45.33;26.25;;;115.70;2176.00;;;;;;4992541;28;20058;-76
2022/03/13 03:07:01;;;;;;;44.78;26.35;;;115.70;2176.00;;;;;;4975356;28;20124;-77
2022/03/13 03:09:29;;;;;;;40.38;21.52;;;115.80;2176.00;;;;;;4992743;28;20050;-76
2022/03/13 03:11:57;;;;;;;47.72;24.65;;;115.80;2176.00;;;;;;4992732;28;20096;-77
2022/03/13 03:14:24;;;;;;;39.83;23.13;;;115.80;2176.00;;;;;;4992754;28;20174;-77
2022/03/13 03:16:49;;;;;;;42.17;23.85;;;115.80;2176.00;;;;;;4991350;28;20058;-76
2022/03/13 03:19:15;;;;;;;73.18;38.72;;;115.80;2176.00;;;;;;4992673;28;20105;-77
2022/03/13 03:21:42;;;;;;;89.50;48.95;;;115.80;2176.00;;;;;;4992851;28;20022;-76
2022/03/13 03:24:16;;;;;;;102.53;51.97;;;115.80;2176.00;;;;;;4992590;28;20023;-76
2022/03/13 03:26:42;;;;;;;101.90;47.88;;;115.90;2176.00;;;;;;4992551;28;20039;-77
2022/03/13 03:29:08;;;;;;;88.07;44.50;;;115.90;2176.00;;;;;;4992149;28;20067;-76
2022/03/13 03:31:39;;;;;;;70.05;40.20;;;115.90;2176.00;;;;;;4974785;28;20497;-76
2022/03/13 03:34:09;;;;;;;48.97;28.20;;;115.80;2176.00;;;;;;4992575;28;20029;-77
2022/03/13 03:36:43;;;;;;;48.95;27.17;;;115.90;2176.00;;;;;;4992516;28;20105;-76
2022/03/13 03:39:10;;;;;;;40.30;24.45;;;115.90;2176.00;;;;;;4991167;28;20026;-76
2022/03/13 03:41:36;;;;;;;50.55;24.85;;;116.10;2176.00;;;;;;4975043;28;20034;-77
2022/03/13 03:44:02;;;;;;;50.22;26.20;;;140.80;2176.00;;;;;;4992472;28;20381;-77
2022/03/13 03:46:27;;;;;;;42.53;20.80;;;140.80;2176.00;;;;;;4992459;28;20022;-77
2022/03/13 03:48:53;;;;;;;42.92;21.35;;;116.00;2176.00;;;;;;4992245;28;20034;-77
2022/03/13 03:51:19;;;;;;;38.17;21.00;;;116.00;2176.00;;;;;;4974815;28;20054;-77
2022/03/13 03:53:45;;;;;;;47.17;24.00;;;116.10;2176.00;;;;;;4992409;28;20049;-77
2022/03/13 03:56:10;;;;;;;33.35;22.20;;;116.00;2176.00;;;;;;4992582;28;20031;-77
2022/03/13 03:58:36;;;;;;;36.15;20.00;;;116.00;2176.00;;;;;;4992055;28;20034;-77
2022/03/13 04:01:02;;;;;;;34.53;16.85;;;116.00;2176.00;;;;;;4992029;28;20029;-76
2022/03/13 04:03:27;;;;;;;34.40;19.65;;;116.10;2176.00;;;;;;4990952;28;20374;-77
2022/03/13 04:05:53;;;;;;;34.92;18.20;;;116.10;2176.00;;;;;;4991941;28;20022;-76
2022/03/13 04:08:19;;;;;;;32.13;18.40;;;140.80;2176.00;;;;;;4974685;28;20038;-77
2022/03/13 04:10:45;;;;;;;36.13;20.27;;;140.80;2176.00;;;;;;4991965;28;20023;-76
2022/03/13 04:13:11;;;;;;;35.78;19.35;;;140.80;2176.00;;;;;;4995365;28;20026;-76
2022/03/13 04:15:37;;;;;;;33.80;19.45;;;140.90;2176.00;;;;;;4994163;28;20177;-77
2022/03/13 04:18:02;;;;;;;36.60;20.63;;;140.90;2176.00;;;;;;4995575;28;20392;-76
2022/03/13 04:20:29;;;;;;;41.80;22.60;;;140.90;2176.00;;;;;;4995730;28;20037;-77
2022/03/13 04:22:55;;;;;;;46.00;22.00;;;140.90;2176.00;;;;;;4978145;28;20030;-76
2022/03/13 04:25:21;;;;;;;37.70;21.77;;;;;;;;;;4995601;28;20034;-77
2022/03/13 04:27:47;;;;;;;44.53;22.08;;;140.90;2176.00;;;;;;4995726;28;20485;-76
2022/03/13 04:30:13;;;;;;;32.40;22.27;;;141.00;2176.00;;;;;;4978092;28;20033;-77
2022/03/13 04:32:39;;;;;;;42.10;23.00;;;141.00;2176.00;;;;;;4995576;28;20022;-76
2022/03/13 04:35:05;;;;;;;39.30;23.05;;;141.10;2176.00;;;;;;4995776;28;20022;-77
2022/03/13 04:37:30;;;;;;;44.13;22.38;;;141.10;2176.00;;;;;;4995074;28;20433;-77
2022/03/13 04:39:56;;;;;;;39.55;21.77;;;141.10;2176.00;;;;;;4995071;28;20077;-76
2022/03/13 04:42:22;;;;;;;40.03;23.45;;;141.00;2176.00;;;;;;4995317;28;20022;-76
2022/03/13 04:44:48;;;;;;;38.15;23.30;;;141.00;2176.00;;;;;;4995292;28;20019;-76
2022/03/13 04:47:13;;;;;;;47.45;26.38;;;141.00;2176.00;;;;;;4995174;28;20077;-76
2022/03/13 04:49:39;;;;;;;45.70;23.42;;;141.10;2176.00;;;;;;4993790;28;20497;-76
2022/03/13 04:52:05;;;;;;;51.67;26.90;;;141.20;2176.00;;;;;;4995210;28;20486;-77
2022/03/13 04:54:31;;;;;;;42.20;24.30;;;141.10;2176.00;;;;;;4995156;28;20529;-76
2022/03/13 04:56:57;;;;;;;46.80;24.05;;;141.20;2176.00;;;;;;4977495;28;20054;-76
2022/03/13 04:59:23;;;;;;;40.38;22.15;;;141.20;2176.00;;;;;;4995028;28;20030;-77
2022/03/13 05:01:49;;;;;;;42.83;23.52;;;141.20;2176.00;;;;;;4977458;28;20033;-76
2022/03/13 05:04:15;;;;;;;42.25;25.15;;;141.20;2176.00;;;;;;4994564;28;20029;-78
2022/03/13 05:06:43;;;;;;;36.78;22.83;;;141.20;2176.00;;;;;;4994626;28;20026;-77
2022/03/13 05:09:09;;;;;;;33.45;19.33;;;141.10;2176.00;;;;;;4994674;28;20061;-77
2022/03/13 05:11:35;;;;;;;30.30;17.60;;;141.20;2176.00;;;;;;4994815;28;20390;-77
2022/03/13 05:14:01;;;;;;;32.03;18.33;;;141.30;2176.00;;;;;;4994532;28;20023;-77
2022/03/13 05:16:26;;;;;;;37.90;18.67;;;141.20;2176.00;;;;;;4994766;28;20037;-76
2022/03/13 05:18:52;;;;;;;37.90;22.70;;;141.10;2176.00;;;;;;4994338;28;20470;-76
2022/03/13 05:21:18;;;;;;;47.30;24.35;;;141.00;2176.00;;;;;;4977137;28;20474;-76
2022/03/13 05:23:44;;;;;;;58.97;29.52;;;140.90;2176.00;;;;;;4993952;28;20371;-76
2022/03/13 05:26:10;;;;;;;71.28;37.78;;;140.90;2176.00;;;;;;4994733;28;20030;-79
2022/03/13 05:28:36;;;;;;;125.88;63.53;;;140.80;2176.00;;;;;;4977032;28;20042;-77
2022/03/13 05:31:02;;;;;;;62.08;34.55;;;116.10;2176.00;;;;;;4994348;28;20022;-77
2022/03/13 05:33:28;;;;;;;51.85;30.08;;;116.10;2176.00;;;;;;4994317;28;20025;-76
2022/03/13 05:35:55;;;;;;;43.80;21.42;;;116.00;2176.00;;;;;;4976921;28;20109;-77
2022/03/13 05:38:20;;;;;;;55.72;28.55;;;116.00;2176.00;;;;;;4994373;28;20573;-77
2022/03/13 05:40:46;;;;;;;48.20;24.90;;;116.00;2176.00;;;;;;4994624;28;20105;-76
2022/03/13 05:43:12;;;;;;;52.05;25.73;;;116.00;2176.00;;;;;;4994002;28;20023;-77
2022/03/13 05:45:39;;;;;;;42.40;22.35;;;115.80;2176.00;;;;;;4993983;28;20023;-76
2022/03/13 05:48:09;;;;;;;48.28;22.08;;;115.80;2176.00;;;;;;4994092;28;20037;-78
2022/03/13 05:50:35;;;;;;;47.53;23.17;;;115.70;2176.00;;;;;;4992743;28;20117;-76
2022/03/13 05:53:01;;;;;;;52.53;25.00;;;115.60;2176.00;;;;;;4993980;28;20046;-76
2022/03/13 05:55:28;;;;;;;58.55;27.20;;;115.60;2176.00;;;;;;4994289;28;20181;-77
2022/03/13 05:57:54;;;;;;;46.35;26.05;;;115.30;2176.00;;;;;;4976529;28;20062;-76
2022/03/13 06:00:22;;;;;;;47.17;25.00;;;115.20;2176.00;;;;;;4993732;28;20026;-78
2022/03/13 06:02:48;;;;;;;61.50;31.45;;;115.20;2176.00;;;;;;4993961;28;20026;-77
2022/03/13 06:05:17;;;;;;;49.65;26.05;;;115.30;2176.00;;;;;;4993777;28;20033;-77
2022/03/13 06:07:43;;;;;;;50.75;28.77;;;115.30;2176.00;;;;;;4993456;28;20510;-77
2022/03/13 06:10:09;;;;;;;55.65;25.67;;;90.50;2176.00;;;;;;4993787;28;20058;-76
2022/03/13 06:12:36;;;;;;;55.65;28.20;;;90.20;2176.00;;;;;;4993448;28;20110;-77
2022/03/13 06:15:04;;;;;;;55.95;26.95;;;90.10;2176.00;;;;;;4993380;28;20046;-76
2022/03/13 06:17:30;;;;;;;54.97;26.95;;;90.00;2176.00;;;;;;4993277;28;20027;-77
2022/03/13 06:19:56;;;;;;;54.58;27.10;;;90.20;2176.00;;;;;;4993875;28;20022;-76
2022/03/13 06:22:23;;;;;;;53.30;24.63;;;90.30;2176.00;;;;;;4993488;28;20022;-77
2022/03/13 06:24:49;;;;;;;43.95;22.77;;;90.10;2176.00;;;;;;4993033;28;20060;-76
2022/03/13 06:27:16;;;;;;;43.88;23.52;;;90.10;2176.00;;;;;;4993269;28;20054;-77
2022/03/13 06:29:42;;;;;;;49.00;23.52;;;90.00;2176.00;;;;;;4975892;28;20037;-76
2022/03/13 06:32:07;;;;;;;49.33;24.45;;;89.80;2176.00;;;;;;4975691;28;20022;-76
2022/03/13 06:34:34;;;;;;;44.60;23.85;;;89.70;2176.00;;;;;;4992759;28;20027;-76
2022/03/13 06:37:00;;;;;;;48.15;24.00;;;64.90;2201.60;;;;;;4992603;28;20026;-76
2022/03/13 06:39:26;;;;;;;42.70;23.48;;;64.60;2201.60;;;;;;4993174;28;20068;-77
2022/03/13 06:41:52;;;;;;;45.88;23.52;;;64.60;2201.60;;;;;;4992613;28;20026;-77
2022/03/13 06:44:18;;;;;;;50.38;26.55;;;64.60;2201.60;;;;;;4975589;28;20080;-77
2022/03/13 06:46:45;;;;;;;41.45;24.60;;;64.50;2201.60;;;;;;4993104;28;20060;-78
2022/03/13 06:49:11;;;;;;;52.30;28.42;;;64.30;2201.60;;;;;;4991611;28;20129;-77
2022/03/13 06:51:40;;;;;;;54.70;26.92;;;64.20;2201.60;;;;;;4975434;28;20029;-76
2022/03/13 06:54:07;;;;;;;50.13;31.02;;;64.10;2201.60;;;;;;4992883;28;20064;-76
2022/03/13 06:56:34;;;;;;;61.83;38.50;;;64.00;2201.60;;;;;;4992766;28;20022;-77
2022/03/13 06:59:03;;;;;;;79.10;44.83;;;39.20;2201.60;;;;;;4992879;28;20045;-77
2022/03/13 07:01:32;;;;;;;79.60;46.40;;;39.00;2201.60;;;;;;4992790;28;20030;-75
2022/03/13 07:03:58;;;;;;;75.45;45.47;;;39.00;2201.60;;;;;;4992545;28;20018;-76
2022/03/13 07:06:24;;;;;;;79.78;42.45;;;38.90;2201.60;;;;;;4992495;28;20117;-77
2022/03/13 07:08:49;;;;;;;66.22;41.65;;;38.70;2201.60;;;;;;4974784;28;20129;-76
2022/03/13 07:11:16;;;;;;;69.20;42.45;;;38.50;2201.60;;;;;;4975285;28;20022;-76
2022/03/13 07:13:44;;;;;;;70.60;40.28;;;38.40;2201.60;;;;;;4992943;28;20447;-76
2022/03/13 07:16:10;;;;;;;61.45;38.30;;;38.50;2201.60;;;;;;4992781;28;20076;-76
2022/03/13 07:18:36;;;;;;;68.25;37.10;;;38.50;2201.60;;;;;;4975190;28;20026;-76
2022/03/13 07:21:02;;;;;;;64.40;38.05;;;13.70;2201.60;;;;;;4991304;28;20085;-77
2022/03/13 07:23:28;;;;;;;75.50;40.88;;;13.70;2201.60;;;;;;4992264;28;20438;-76
2022/03/13 07:25:54;;;;;;;71.95;41.08;;;13.60;2201.60;;;;;;4992363;28;20030;-77
2022/03/13 07:28:20;;;;;;;94.30;39.38;;;13.50;2201.60;;;;;;4992500;28;20031;-78
2022/03/13 07:30:46;;;;;;;62.35;36.08;;;13.40;2201.60;;;;;;4991992;28;20054;-78
2022/03/13 07:33:12;;;;;;;52.28;31.77;;;13.40;2201.60;;;;;;4991321;28;20038;-77
2022/03/13 07:35:38;;;;;;;47.67;32.92;;;13.30;2201.60;;;;;;4991145;28;20038;-76
2022/03/13 07:38:05;;;;;;;52.72;29.85;;;13.20;2201.60;;;;;;4991120;28;20025;-77
2022/03/13 07:40:31;;;;;;;51.53;31.60;;;13.10;2201.60;;;;;;4992496;28;20463;-77
2022/03/13 07:42:57;;;;;;;53.58;29.58;;;12.90;2201.60;;;;;;4992161;28;20110;-77
2022/03/13 07:45:24;;;;;;;49.20;28.20;;;0.00;2201.60;;;;;;4992106;28;20026;-76
2022/03/13 07:47:50;;;;;;;54.60;31.92;;;0.20;2099.20;;;;;;5010545;28;20088;-76
2022/03/13 07:50:16;;;;;;;47.65;29.73;;;0.20;2124.80;;;;;;4996044;28;20109;-76
2022/03/13 07:52:42;;;;;;;49.30;30.00;;;0.40;2073.60;;;;;;4996215;28;20025;-76
2022/03/13 07:55:09;;;;;;;49.88;31.40;;;0.50;2048.00;;;;;;4996053;28;20022;-76
2022/03/13 07:57:35;;;;;;;57.17;32.42;;;0.50;2099.20;;;;;;5011150;28;20037;-76
2022/03/13 08:00:00;;;;;;;50.03;30.02;;;0.60;2124.80;;;;;;4995782;28;20032;-76
2022/03/13 08:02:26;;;;;;;64.22;32.80;;;0.70;2176.00;;;;;;4995731;28;20480;-76
2022/03/13 08:04:52;;;;;;;52.45;33.70;;;0.90;2176.00;;;;;;4995961;28;20033;-77
2022/03/13 08:07:18;;;;;;;57.90;32.90;;;25.60;2124.80;;;;;;5010940;28;20478;-76
2022/03/13 08:09:44;;;;;;;58.15;28.55;;;25.60;2048.00;;;;;;4995855;28;20093;-77
2022/03/13 08:12:09;;;;;;;46.10;28.63;;;25.60;1945.60;;;;;;4996068;28;20599;-77
2022/03/13 08:14:35;;;;;;;51.20;29.30;;;25.70;1920.00;;;;;;4994301;28;20042;-76
2022/03/13 08:17:01;;;;;;;46.50;29.15;;;25.80;1920.00;;;;;;4995774;28;20037;-76
2022/03/13 08:19:27;;;;;;;52.55;31.02;;;25.70;1920.00;;;;;;5010769;28;20030;-76
2022/03/13 08:21:52;;;;;;;38.25;25.05;;;25.80;1920.00;;;;;;4995250;28;20023;-76
2022/03/13 08:24:18;;;;;;;47.70;27.75;;;25.90;1894.40;;;;;;4995523;28;20048;-79
2022/03/13 08:26:44;;;;;;;47.00;30.45;;;26.10;1843.20;;;;;;5010734;28;20063;-76
2022/03/13 08:29:11;;;;;;;51.33;29.23;;;26.20;1843.20;;;;;;5010569;28;20471;-77
2022/03/13 08:31:38;;;;;;;53.75;28.75;;;26.40;1817.60;;;;;;4995245;28;20084;-76
2022/03/13 08:34:10;;;;;;;45.78;28.23;;;26.50;1740.80;;;;;;4995438;28;20018;-77
2022/03/13 08:36:40;;;;;;;40.30;25.88;;;26.50;1792.00;;;;;;4994006;28;20458;-76
2022/03/13 08:39:07;;;;;;;43.83;27.63;;;26.50;1792.00;;;;;;4993990;28;20151;-76
2022/03/13 08:41:34;;;;;;;60.70;31.60;;;26.50;1843.20;;;;;;4993714;28;20026;-77
2022/03/13 08:43:59;;;;;;;43.72;28.00;;;26.50;1817.60;;;;;;4995386;28;20038;-76
2022/03/13 08:46:25;;;;;;;50.08;28.95;;;51.30;1817.60;;;;;;4995343;28;20026;-76
2022/03/13 08:48:51;;;;;;;52.03;30.08;;;51.50;1792.00;;;;;;4993859;28;20042;-77
2022/03/13 08:51:18;;;;;;;46.15;28.02;;;51.70;1766.40;;;;;;4993707;28;20030;-77
2022/03/13 08:53:44;;;;;;;49.92;30.13;;;52.00;1715.20;;;;;;4994877;28;20113;-77
2022/03/13 08:56:13;;;;;;;53.42;31.00;;;52.10;1689.60;;;;;;4994910;28;20116;-76
2022/03/13 08:58:40;;;;;;;48.63;29.73;;;76.80;1689.60;;;;;;4992680;28;20022;-76
2022/03/13 09:01:05;;;;;;;47.78;26.85;;;76.90;1715.20;;;;;;4977401;28;20466;-76
2022/03/13 09:03:32;;;;;;;41.70;27.70;;;77.00;1689.60;;;;;;4993605;28;20073;-76
2022/03/13 09:05:57;;;;;;;42.83;27.92;;;77.00;1689.60;;;;;;4994843;28;20026;-76
2022/03/13 09:08:23;;;;;;;52.28;31.00;;;77.10;1664.00;;;;;;4994674;28;20045;-76
2022/03/13 09:10:50;;;;;;;49.42;28.40;;;77.20;1664.00;;;;;;4994661;28;20018;-77
2022/03/13 09:13:16;;;;;;;44.42;27.08;;;77.30;1638.40;;;;;;4994637;28;20089;-76
2022/03/13 09:15:41;;;;;;;43.15;27.30;;;77.40;1638.40;;;;;;4994712;28;20046;-75
2022/03/13 09:18:07;;;;;;;48.20;27.38;;;77.50;1612.80;;;;;;4994748;28;20026;-76
2022/03/13 09:20:33;;;;;;;42.65;26.35;;;77.60;1612.80;;;;;;4994874;28;20031;-76
2022/03/13 09:22:58;;;;;;;50.20;26.30;;;77.70;1612.80;;;;;;4994521;28;20023;-75
2022/03/13 09:25:24;;;;;;;48.15;28.75;;;102.40;1587.20;;;;;;4994861;28;20025;-86
2022/03/13 09:27:52;;;;;;;51.50;29.98;;;102.40;1561.60;;;;;;4995035;28;20164;-80
2022/03/13 09:30:18;;;;;;;39.17;26.33;;;102.60;1587.20;;;;;;4994809;28;20045;-79
2022/03/13 09:32:44;;;;;;;60.33;36.55;;;102.50;1561.60;;;;;;4994691;28;20466;-80
2022/03/13 09:35:11;;;;;;;43.53;28.13;;;102.70;1561.60;;;;;;4994985;28;20022;-84
2022/03/13 09:37:39;;;;;;;43.83;28.92;;;102.90;1536.00;;;;;;4993466;28;20156;-85
2022/03/13 09:40:05;;;;;;;46.03;27.50;;;103.00;1510.40;;;;;;4994916;28;20069;-86
2022/03/13 09:42:31;;;;;;;41.67;28.92;;;103.10;1459.20;;;;;;4995103;28;20029;-87
2022/03/13 09:44:59;;;;;;;49.88;25.90;;;103.30;1484.80;;;;;;4994900;28;20105;-81
2022/03/13 09:47:26;;;;;;;42.70;25.52;;;128.00;1484.80;;;;;;4976574;28;20496;-81
2022/03/13 09:49:53;;;;;;;40.78;25.95;;;102.90;1459.20;;;;;;4993187;28;20026;-83
2022/03/13 09:52:18;;;;;;;47.40;28.33;;;103.00;1484.80;;;;;;4991677;28;20030;-77
2022/03/13 09:54:44;;;;;;;49.90;28.58;;;102.90;1484.80;;;;;;4971601;28;20125;-78
2022/03/13 09:57:10;;;;;;;46.13;25.80;;;103.30;1484.80;;;;;;4993248;28;20030;-82
2022/03/13 09:59:36;;;;;;;42.67;24.50;;;128.10;1484.80;;;;;;4992653;28;20441;-80
2022/03/13 10:02:06;;;;;;;40.50;25.63;;;128.30;1459.20;;;;;;4993879;28;20030;-83
2022/03/13 10:04:33;;;;;;;48.63;27.38;;;128.50;1433.60;;;;;;4993812;28;20029;-82
2022/03/13 10:07:10;;;;;;;38.30;24.55;;;128.70;1382.40;;;;;;4993905;28;20019;-83
2022/03/13 10:09:38;;;;;;;39.22;25.08;;;128.80;1356.80;;;;;;4992660;28;20403;-82
2022/03/13 10:12:08;;;;;;;42.35;26.48;;;128.60;1356.80;;;;;;4993797;28;20363;-81
2022/03/13 10:14:39;;;;;;;37.45;24.25;;;128.80;1356.80;;;;;;5008583;28;20097;-84
2022/03/13 10:17:13;;;;;;;72.55;41.80;;;153.60;1331.20;;;;;;4993721;28;20034;-82
2022/03/13 10:19:39;;;;;;;44.30;24.60;;;153.60;1331.20;;;;;;4993468;28;20399;-77
2022/03/13 10:22:08;;;;;;;56.55;33.65;;;153.90;1305.60;;;;;;4976036;28;20030;-76
2022/03/13 10:24:46;;;;;;;56.63;28.65;;;154.00;1305.60;;;;;;5008546;28;20026;-81
2022/03/13 10:27:11;;;;;;;39.67;24.73;;;154.20;1331.20;;;;;;4993133;28;20027;-79
2022/03/13 10:29:37;;;;;;;36.53;24.85;;;154.30;1356.80;;;;;;4975859;28;20053;-79
2022/03/13 10:32:05;;;;;;;43.80;27.33;;;154.40;1305.60;;;;;;4991948;28;20026;-76
2022/03/13 10:34:32;;;;;;;42.83;26.48;;;154.40;1331.20;;;;;;4992996;28;20015;-82
2022/03/13 10:36:58;;;;;;;40.35;25.10;;;154.50;1254.40;;;;;;4991336;28;20029;-78
2022/03/13 10:39:24;;;;;;;46.28;31.10;;;179.50;1254.40;;;;;;4986399;28;20030;-77
2022/03/13 10:41:58;;;;;;;36.03;20.95;;;179.60;1254.40;;;;;;4992841;28;20030;-79
2022/03/13 10:44:25;;;;;;;41.95;24.88;;;180.10;1203.20;;;;;;4991915;28;20084;-84
2022/03/13 10:47:01;;;;;;;30.02;20.63;;;179.60;1203.20;;;;;;4993304;28;20049;-81
2022/03/13 10:49:41;;;;;;;39.13;20.40;;;179.90;1177.60;;;;;;4991140;28;20137;-82
2022/03/13 10:52:25;;;;;;;30.27;21.35;;;180.00;1152.00;;;;;;4993264;28;20038;-82
2022/03/13 10:54:56;;;;;;;32.92;20.23;;;180.10;1152.00;;;;;;4993049;28;20026;-79
2022/03/13 10:57:22;;;;;;;46.25;27.90;;;204.80;1126.40;;;;;;4979199;28;20467;-79
2022/03/13 11:00:09;;;;;;;34.58;22.00;;;230.50;1126.40;;;;;;4990061;28;20061;-83
2022/03/13 11:02:35;;;;;;;31.55;20.42;;;256.40;1024.00;;;;;;4976704;28;20018;-81
2022/03/13 11:05:01;;;;;;;36.25;23.52;;;256.40;1024.00;;;;;;4976396;28;20483;-82
2022/03/13 11:07:27;;;;;;;33.28;21.90;;;205.70;1331.20;;;;;;4974039;28;20045;-81
2022/03/13 11:09:54;;;;;;;29.10;18.23;;;231.20;1024.00;;;;;;4989619;28;20457;-81
2022/03/13 11:12:20;;;;;;;29.38;19.05;;;231.30;972.80;;;;;;4975430;28;20039;-81
2022/03/13 11:14:52;;;;;;;42.58;26.38;;;205.50;1024.00;;;;;;4976612;28;20045;-81
2022/03/13 11:17:20;;;;;;;21.50;15.82;;;205.50;1075.20;;;;;;4992762;28;20109;-80
2022/03/13 11:19:53;;;;;;;30.23;19.05;;;230.70;972.80;;;;;;4992712;28;20022;-76
2022/03/13 11:22:22;;;;;;;21.35;16.40;;;230.70;1049.60;;;;;;4992287;28;20033;-83
2022/03/13 11:25:07;;;;;;;25.70;15.93;;;;;;;;;;4972883;28;20096;-81
2022/03/13 11:27:42;;;;;;;24.92;17.27;;;;;;;;;;4981947;28;20031;-78
2022/03/13 11:30:09;;;;;;;23.90;15.35;;;;;;;;;;4990651;28;20437;-80
2022/03/13 11:32:46;;;;;;;24.77;16.30;;;;;;;;;;4981452;28;20023;-80
2022/03/13 11:37:39;;;;;;;35.17;22.17;;;;;;;;;;4974866;28;20062;-79
2022/03/13 11:40:05;;;;;;;30.50;18.08;;;;;;;;;;4973018;28;20027;-78
2022/03/13 11:42:48;;;;;;;19.70;12.73;;;;;;;;;;4972657;28;20035;-79
2022/03/13 11:45:28;;;;;;;27.80;16.73;;;;;;;;;;4987586;28;20449;-79
2022/03/13 11:47:58;;;;;;;21.15;16.15;;;;;;;;;;4982175;28;20494;-80
2022/03/13 11:50:43;;;;;;;18.30;13.07;;;;;;;;;;4990433;28;20027;-80
2022/03/13 11:53:16;;;;;;;24.27;15.88;;;;;;;;;;4991380;28;20110;-80
2022/03/13 11:56:00;;;;;;;16.60;11.75;;;;;;;;;;4991584;28;20027;-79
2022/03/13 11:58:42;;;;;;;15.75;10.40;;;;;;;;;;4982282;28;20481;-80
2022/03/13 12:01:09;;;;;;;18.60;10.57;;;256.40;870.40;;;;;;4992328;28;20114;-80
2022/03/13 12:03:34;;;;;;;32.85;24.63;;;256.30;844.80;;;;;;4973408;28;20077;-78
2022/03/13 12:06:00;;;;;;;14.32;9.00;;;231.00;921.60;;;;;;5005993;28;20113;-80
2022/03/13 12:09:04;;;;;;;14.93;10.95;;;231.00;870.40;;;;;;4971710;28;20486;-78
2022/03/13 12:11:39;;;;;;;16.08;11.50;;;230.90;921.60;;;;;;5005039;28;20034;-78
2022/03/13 12:14:10;;;;;;;18.50;10.98;;;231.00;896.00;;;;;;4982589;28;20096;-78